»·PEaware :: N903DB KBOI-KSLC

N903DB :: KBOI-KSLC

FLIGHT INFORMATION

Flight Status: Arrived
Operator: Privately registered:
United States
More flights under this callsign
Pilot: Drew L. (13237)
Aircraft: SOCATA TBM-900
(TBM9)
More flights by this aircraft type
Origin: KBOI Boise Air Terminal/Gowen
United States
Destination: KSLC Salt Lake City Intl
United States
More flights between these airports :: More routes between these airports
Route: +BOI3 ROARR BYI BEARR5
File this flight plan on PilotEdge
Remarks: ROGER
Altitude:
(Current/Filed)
31,000ft
Speed:
(Current/Filed)
0kts
Departed: 24-Oct-18 02:57 PM
Arrived: 24-Oct-18 03:59 PM
Distance/Time
Traveled:
253nm/1:01
Distance/Time
To Go:
Arrived

Flight Plot

Page will automatically refresh every two minutes.

Flight plan parsing failed; only flown route is shown


Map Options




Map Legend


Flown Route
Filed Route
Departure Airport
Arrival Airport
Navaid (VOR, NDB)
Fix

Horizontal Profiles

Position Reports

Time Latitude Longitude Heading Altitude Ground
Speed
24-Oct-18 14:39 43.568863 -116.227592 183 2841ft 0kts
24-Oct-18 14:40 43.568863 -116.227592 183 2841ft 0kts
24-Oct-18 14:41 43.568863 -116.227592 183 2841ft 0kts
24-Oct-18 14:42 43.568863 -116.227592 183 2841ft 0kts
24-Oct-18 14:43 43.568863 -116.227592 183 2841ft 0kts
24-Oct-18 14:44 43.568863 -116.227592 183 2841ft 0kts
24-Oct-18 14:45 43.568863 -116.227592 183 2841ft 0kts
24-Oct-18 14:46 43.568863 -116.227592 183 2841ft 0kts
24-Oct-18 14:47 43.568863 -116.227592 183 2841ft 0kts
24-Oct-18 14:48 43.568863 -116.227592 183 2841ft 0kts
24-Oct-18 14:49 43.568863 -116.227592 183 2841ft 0kts
24-Oct-18 14:50 43.568863 -116.227592 183 2841ft 0kts
24-Oct-18 14:51 43.568863 -116.227592 183 2841ft 0kts
24-Oct-18 14:52 43.568863 -116.227592 183 2841ft 0kts
24-Oct-18 14:53 43.568863 -116.227592 183 2841ft 0kts
24-Oct-18 14:54 43.568863 -116.227592 183 2841ft 0kts
24-Oct-18 14:55 43.568863 -116.227592 183 2842ft 0kts
24-Oct-18 14:56 43.568854 -116.227593 183 2841ft 2kts
24-Oct-18 14:57 43.570786 -116.235056 295 2842ft 27kts
24-Oct-18 14:58 43.571009 -116.236064 244 2842ft 0kts
24-Oct-18 14:59 43.566993 -116.227430 113 2876ft 115kts
24-Oct-18 15:00 43.552137 -116.181598 111 4917ft 148kts
24-Oct-18 15:01 43.536937 -116.128755 111 7156ft 153kts
24-Oct-18 15:02 43.521010 -116.073335 115 9168ft 159kts
24-Oct-18 15:03 43.503060 -116.017106 117 11050ft 163kts
24-Oct-18 15:04 43.484728 -115.960224 118 12795ft 165kts
24-Oct-18 15:05 43.465734 -115.901468 118 14336ft 172kts
24-Oct-18 15:06 43.446011 -115.840568 119 15736ft 178kts
24-Oct-18 15:07 43.425092 -115.776106 119 17752ft 187kts
24-Oct-18 15:08 43.403505 -115.709764 119 19734ft 196kts
24-Oct-18 15:09 43.380726 -115.639945 119 21507ft 206kts
24-Oct-18 15:10 43.356642 -115.566318 118 23540ft 217kts
24-Oct-18 15:11 43.331510 -115.489707 118 25454ft 227kts
24-Oct-18 15:12 43.305042 -115.409226 117 27170ft 237kts
24-Oct-18 15:13 43.273242 -115.329173 127 28700ft 243kts
24-Oct-18 15:14 43.236497 -115.249583 126 30040ft 252kts
24-Oct-18 15:15 43.198351 -115.167371 125 31070ft 269kts
24-Oct-18 15:16 43.154803 -115.073804 123 31091ft 310kts
24-Oct-18 15:17 43.107195 -114.971778 122 31103ft 327kts
24-Oct-18 15:18 43.057503 -114.865664 122 31111ft 339kts
24-Oct-18 15:19 43.005210 -114.754472 122 31109ft 354kts
24-Oct-18 15:20 42.951483 -114.640649 122 31108ft 360kts
24-Oct-18 15:21 42.897283 -114.526280 122 31107ft 362kts
24-Oct-18 15:22 42.843122 -114.412388 121 31102ft 362kts
24-Oct-18 15:23 42.788287 -114.297567 122 31096ft 362kts
24-Oct-18 15:24 42.733467 -114.183201 122 31095ft 362kts
24-Oct-18 15:25 42.678586 -114.069152 122 31093ft 362kts
24-Oct-18 15:26 42.623681 -113.955491 122 31091ft 362kts
24-Oct-18 15:27 42.564859 -113.845201 135 31094ft 361kts
24-Oct-18 15:28 42.493720 -113.749715 136 31093ft 362kts
24-Oct-18 15:29 42.422077 -113.653913 136 31094ft 362kts
24-Oct-18 15:30 42.350270 -113.558200 136 31095ft 362kts
24-Oct-18 15:31 42.278538 -113.462915 136 31097ft 363kts
24-Oct-18 15:32 42.206715 -113.367833 136 31098ft 363kts
24-Oct-18 15:33 42.134915 -113.273129 136 31091ft 363kts
24-Oct-18 15:34 42.063081 -113.178653 137 31093ft 362kts
24-Oct-18 15:35 41.991242 -113.084518 137 30980ft 354kts
24-Oct-18 15:36 41.921160 -112.992975 137 29464ft 349kts
24-Oct-18 15:37 41.855336 -112.907272 137 28112ft 334kts
24-Oct-18 15:38 41.820407 -112.861880 137 26777ft 321kts
24-Oct-18 15:39 41.757907 -112.780864 137 23639ft 306kts
24-Oct-18 15:40 41.698906 -112.704594 138 20716ft 289kts
24-Oct-18 15:41 41.642890 -112.632391 138 17938ft 274kts
24-Oct-18 15:42 41.589763 -112.564082 138 15291ft 259kts
24-Oct-18 15:43 41.544537 -112.506009 139 15113ft 205kts
24-Oct-18 15:44 41.503858 -112.453961 139 15129ft 204kts
24-Oct-18 15:45 41.462970 -112.401698 139 15130ft 204kts
24-Oct-18 15:46 41.420026 -112.346935 139 15136ft 225kts
24-Oct-18 15:47 41.368397 -112.300361 152 14925ft 222kts
24-Oct-18 15:48 41.317219 -112.254437 150 14119ft 222kts
24-Oct-18 15:49 41.263609 -112.217973 168 13392ft 211kts
24-Oct-18 15:50 41.207781 -112.196983 168 11948ft 209kts
24-Oct-18 15:51 41.154190 -112.176720 167 11118ft 194kts
24-Oct-18 15:52 41.101334 -112.156815 167 11132ft 201kts
24-Oct-18 15:53 41.043494 -112.141009 173 11137ft 219kts
24-Oct-18 15:54 40.983170 -112.128852 172 11136ft 223kts
24-Oct-18 15:55 40.921697 -112.116396 172 11132ft 224kts
24-Oct-18 15:56 40.861154 -112.104084 172 10241ft 232kts
24-Oct-18 15:57 40.799082 -112.091421 172 9081ft 230kts
24-Oct-18 15:58 40.747788 -112.063688 101 7622ft 213kts
24-Oct-18 15:59 40.745344 -111.995084 91 6214ft 186kts
24-Oct-18 16:00 40.764190 -111.962022 356 4740ft 101kts
24-Oct-18 16:01 40.782474 -111.961619 83 4230ft 13kts
24-Oct-18 16:02 40.782049 -111.959955 184 4230ft 10kts
24-Oct-18 16:03 40.778363 -111.959115 169 4230ft 11kts
24-Oct-18 16:04 40.777843 -111.959273 180 4230ft 0kts
24-Oct-18 16:05 40.777843 -111.959273 180 4230ft 0kts
24-Oct-18 16:06 40.777843 -111.959273 180 4230ft 0kts

Navigation Log

Ident Type
Flight plan parsing failed, navigation log unavailable